Time;durP1;ratioP1;P1;durP2;ratioP2;P2;SDS_P1;SDS_P2;PMS_P1;PMS_P2;Temp;Humidity;BMP_temperature;BMP_pressure;BME280_temperature;BME280_humidity;BME280_pressure;Samples;Min_cycle;Max_cycle;Signal;HPM_P1;HPM_P2
2022/06/12 00:00:27;;;;;;;;;2.33;0.67;;;;;18.69;100.00;101919.97;5064436;28;45798;-79
2022/06/12 00:02:54;;;;;;;;;1.00;1.00;;;;;18.67;100.00;101922.16;5081632;27;45442;-79
2022/06/12 00:05:24;;;;;;;;;1.67;1.00;;;;;18.46;100.00;101888.22;5053194;28;45625;-79
2022/06/12 00:07:52;;;;;;;;;1.00;1.00;;;;;18.62;100.00;101919.22;5039789;28;45411;-78
2022/06/12 00:10:18;;;;;;;;;1.00;1.00;;;;;18.60;100.00;101921.41;5075438;28;45424;-78
2022/06/12 00:12:45;;;;;;;;;1.33;1.33;;;;;18.57;100.00;101907.97;5072192;27;45544;-78
2022/06/12 00:15:15;;;;;;;;;1.00;1.00;;;;;18.55;100.00;101907.34;5068664;27;45445;-80
2022/06/12 00:17:44;;;;;;;;;2.00;1.00;;;;;18.52;100.00;101923.41;5056250;27;45854;-79
2022/06/12 00:20:12;;;;;;;;;0.67;0.00;;;;;18.50;100.00;101919.16;5075083;28;45565;-78
2022/06/12 00:22:42;;;;;;;;;2.00;2.00;;;;;18.49;100.00;101921.09;5061890;28;45628;-79
2022/06/12 00:25:12;;;;;;;;;2.00;1.00;;;;;18.43;100.00;101918.38;5074621;27;46299;-79
2022/06/12 00:27:40;;;;;;;;;2.00;2.00;;;;;18.33;100.00;101899.50;5075789;27;45772;-79
2022/06/12 00:30:08;;;;;;;;;2.00;1.33;;;;;18.44;100.00;101922.88;5087735;27;45403;-80
2022/06/12 00:32:38;;;;;;;;;3.00;1.67;;;;;18.40;100.00;101929.97;5064985;27;45463;-79
2022/06/12 00:35:07;;;;;;;;;2.00;1.00;;;;;18.24;100.00;101906.47;5077732;28;46198;-79
2022/06/12 00:37:35;;;;;;;;;1.00;1.00;;;;;18.33;100.00;101924.50;5079328;27;45677;-77
2022/06/12 00:40:03;;;;;;;;;1.00;1.00;;;;;18.31;100.00;101935.00;5079696;27;45558;-78
2022/06/12 00:42:36;;;;;;;;;1.67;1.00;;;;;18.24;100.00;101929.50;5077121;27;45788;-80
2022/06/12 00:45:34;;;;;;;;;2.00;2.00;;;;;18.23;100.00;101926.97;5088402;27;46585;-80
2022/06/12 00:48:05;;;;;;;;;3.00;2.00;;;;;18.22;100.00;101936.38;5051301;28;45728;-79
2022/06/12 00:50:32;;;;;;;;;2.00;1.00;;;;;18.09;100.00;101918.78;5053288;28;45403;-80
2022/06/12 00:53:01;;;;;;;;;1.00;1.00;;;;;18.15;100.00;101937.31;5069359;27;45529;-80
2022/06/12 00:55:57;;;;;;;;;2.67;1.67;;;;;18.14;100.00;101934.75;5052241;28;45736;-79
2022/06/12 00:58:27;;;;;;;;;4.00;1.33;;;;;18.13;100.00;101935.84;4993083;28;45895;-79
2022/06/12 01:00:56;;;;;;;;;1.00;1.00;;;;;18.10;100.00;101931.59;5054657;28;45536;-79
2022/06/12 01:06:33;;;;;;;;;1.00;1.00;;;;;18.07;100.00;101932.06;5075312;28;45437;-79
2022/06/12 01:06:35;;;;;;;;;2.00;2.00;;;;;18.05;100.00;101936.97;5072324;27;45847;-78
2022/06/12 01:09:13;;;;;;;;;2.00;1.00;;;;;18.03;100.00;101930.81;5072884;27;45444;-79
2022/06/12 01:11:46;;;;;;;;;4.67;2.67;;;;;17.99;100.00;101932.34;5073143;27;45743;-78
2022/06/12 01:14:16;;;;;;;;;0.33;0.00;;;;;17.93;100.00;101931.34;5074658;27;45468;-80
2022/06/12 01:16:48;;;;;;;;;3.00;2.00;;;;;17.96;100.00;101942.00;5072568;28;45437;-80
2022/06/12 01:19:42;;;;;;;;;2.00;2.00;;;;;17.87;100.00;101936.94;5064113;28;45543;-78
2022/06/12 01:22:17;;;;;;;;;5.00;3.33;;;;;17.88;100.00;101941.41;5061521;28;45714;-78
2022/06/12 01:25:22;;;;;;;;;1.33;1.33;;;;;17.87;100.00;101942.47;5070798;28;45504;-79
2022/06/12 01:28:26;;;;;;;;;4.00;2.67;;;;;17.83;100.00;101942.94;5069596;28;46285;-79
2022/06/12 01:31:30;;;;;;;;;1.67;1.00;;;;;17.76;100.00;101939.38;5039102;27;45722;-78
2022/06/12 01:34:23;;;;;;;;;4.33;3.00;;;;;17.76;100.00;101944.09;5073609;27;45680;-79
2022/06/12 01:37:15;;;;;;;;;7.67;3.67;;;;;17.74;100.00;101937.91;5061912;28;45760;-77
2022/06/12 01:40:15;;;;;;;;;4.00;3.00;;;;;17.60;100.00;101926.06;5061297;27;46699;-79
2022/06/12 01:43:05;;;;;;;;;5.00;2.00;;;;;17.68;100.00;101945.22;5067250;27;45411;-77
2022/06/12 01:46:01;;;;;;;;;5.67;3.33;;;;;17.64;100.00;101944.81;5064412;27;45566;-79
2022/06/12 01:48:49;;;;;;;;;5.00;2.67;;;;;17.62;100.00;101948.91;5020893;28;45942;-78
2022/06/12 01:51:21;;;;;;;;;4.00;3.00;;;;;17.60;100.00;101959.38;5074741;27;45948;-79
2022/06/12 01:54:03;;;;;;;;;5.33;4.00;;;;;17.56;100.00;101964.53;5039549;28;45807;-79
2022/06/12 01:56:43;;;;;;;;;4.00;4.00;;;;;17.37;100.00;101946.97;5071032;27;45395;-79
2022/06/12 01:59:20;;;;;;;;;4.00;3.00;;;;;17.51;100.00;101964.34;5058581;28;45878;-79
2022/06/12 02:01:54;;;;;;;;;7.33;3.33;;;;;17.45;100.00;101959.69;5069293;27;46029;-79
2022/06/12 02:04:36;;;;;;;;;4.00;2.67;;;;;17.35;100.00;101942.72;5055958;28;45832;-78
2022/06/12 02:07:17;;;;;;;;;2.00;2.00;;;;;17.39;100.00;101961.44;5059491;28;45395;-77
2022/06/12 02:10:22;;;;;;;;;4.00;2.67;;;;;17.38;100.00;101968.09;5076989;28;45791;-79
2022/06/12 02:13:13;;;;;;;;;9.33;5.67;;;;;17.34;100.00;101968.75;4999202;28;46718;-77
2022/06/12 02:15:45;;;;;;;;;16.00;13.33;;;;;17.31;100.00;101975.59;5074026;28;45315;-77
2022/06/12 02:18:15;;;;;;;;;7.67;6.67;;;;;17.28;100.00;101978.81;5077705;27;45656;-77
2022/06/12 02:20:47;;;;;;;;;10.33;8.00;;;;;17.22;100.00;101963.09;5078643;27;45593;-76
2022/06/12 02:23:26;;;;;;;;;3.33;3.00;;;;;17.22;100.00;101960.31;5063968;27;46173;-78
2022/06/12 02:25:56;;;;;;;;;11.33;6.00;;;;;17.14;100.00;101955.00;5086777;27;45673;-78
2022/06/12 02:28:29;;;;;;;;;8.67;7.00;;;;;17.05;100.00;101949.75;5075233;28;45781;-78
2022/06/12 02:31:00;;;;;;;;;5.00;5.00;;;;;17.13;100.00;101972.75;5075894;28;45576;-79
2022/06/12 02:33:36;;;;;;;;;8.00;4.33;;;;;17.10;100.00;101974.88;5077085;28;46218;-77
2022/06/12 02:36:19;;;;;;;;;5.00;5.00;;;;;17.07;100.00;101974.47;5067787;28;45465;-76
2022/06/12 02:39:40;;;;;;;;;;;;;;;;;;;;;
2022/06/12 02:42:45;;;;;;;;;4.00;4.00;;;;;16.99;100.00;101970.03;5055088;27;74111;-77
2022/06/12 02:48:54;;;;;;;;;6.00;4.00;;;;;16.78;100.00;101937.91;5063059;28;45485;-78
2022/06/12 02:52:00;;;;;;;;;3.00;3.00;;;;;16.91;100.00;101965.59;5058676;28;45422;-78
2022/06/12 02:55:27;;;;;;;;;4.67;4.67;;;;;16.90;100.00;101961.13;5048175;28;45783;-77
2022/06/12 02:58:25;;;;;;;;;15.00;14.00;;;;;16.86;100.00;101965.38;5036875;28;47940;-77
2022/06/12 03:01:14;;;;;;;;;9.67;7.00;;;;;16.63;100.00;101924.38;5005704;28;45709;-79
2022/06/12 03:04:31;;;;;;;;;4.33;3.67;;;;;16.85;100.00;101971.16;5033146;28;45632;-78
2022/06/12 03:07:30;;;;;;;;;5.67;3.00;;;;;16.67;100.00;101935.84;5034877;28;45848;-77
2022/06/12 03:10:32;;;;;;;;;7.33;4.67;;;;;16.66;100.00;101939.69;5037120;28;45343;-80
2022/06/12 03:13:08;;;;;;;;;3.00;2.33;;;;;16.52;100.00;101930.59;5035598;28;45553;-82
2022/06/12 03:15:40;;;;;;;;;3.67;3.00;;;;;16.79;100.00;101966.50;5035368;28;45708;-82
2022/06/12 03:18:11;;;;;;;;;4.00;4.00;;;;;16.67;100.00;101941.41;5057257;28;45900;-81
2022/06/12 03:21:20;;;;;;;;;3.33;2.00;;;;;16.77;100.00;101967.53;5036143;28;46431;-82
2022/06/12 03:24:27;;;;;;;;;;;;;;;;;;;;;
2022/06/12 03:27:46;;;;;;;;;4.67;4.67;;;;;16.50;100.00;101935.50;4972340;28;67530;-82
2022/06/12 03:31:04;;;;;;;;;;;;;;;;;;;;;
2022/06/12 03:34:04;;;;;;;;;3.67;3.00;;;;;16.69;100.00;101967.81;5010798;28;76254;-80
2022/06/12 03:36:52;;;;;;;;;5.33;3.00;;;;;16.28;100.00;101897.03;5052202;28;45792;-81
2022/06/12 03:39:46;;;;;;;;;6.67;4.67;;;;;16.62;100.00;101955.91;5024721;28;46700;-82
2022/06/12 03:43:04;;;;;;;;;4.67;4.00;;;;;16.71;100.00;101971.19;5038629;28;45601;-82
2022/06/12 03:45:52;;;;;;;;;10.67;5.00;;;;;16.45;100.00;101921.47;5058017;28;45919;-80
2022/06/12 03:49:19;;;;;;;;;3.67;2.33;;;;;16.74;100.00;101968.00;5050758;28;45498;-79
2022/06/12 03:53:04;;;;;;;;;8.33;5.00;;;;;16.79;100.00;101967.31;5031235;28;45270;-80
2022/06/12 04:00:19;;;;;;;;;;;;;;;;;;;;;
2022/06/12 04:03:04;;;;;;;;;3.67;3.00;;;;;16.97;100.00;101946.38;4997626;28;72902;-83
2022/06/12 04:05:42;;;;;;;;;4.00;4.00;;;;;17.32;100.00;101965.34;5056228;28;45908;-83
2022/06/12 04:08:15;;;;;;;;;4.00;4.00;;;;;17.36;100.00;101916.69;5077153;28;45878;-81
2022/06/12 04:10:56;;;;;;;;;6.33;3.00;;;;;17.94;100.00;101946.06;5076108;28;46266;-81
2022/06/12 04:13:48;;;;;;;;;3.33;3.33;;;;;18.31;100.00;101938.63;5077195;27;45750;-81
2022/06/12 04:16:22;;;;;;;;;4.00;3.00;;;;;18.88;100.00;101948.63;5057334;28;45845;-81
2022/06/12 04:19:12;;;;;;;;;2.00;2.00;;;;;19.04;100.00;101886.78;5078826;27;45371;-79
2022/06/12 04:22:04;;;;;;;;;5.67;5.00;;;;;20.05;100.00;101947.16;5074080;28;45422;-82
2022/06/12 04:25:03;;;;;;;;;3.00;1.67;;;;;20.66;100.00;101932.91;5067824;27;45782;-80
2022/06/12 04:27:53;;;;;;;;;5.00;2.00;;;;;21.29;100.00;101919.84;5054955;28;45484;-80
2022/06/12 04:30:53;;;;;;;;;8.00;3.00;;;;;22.14;100.00;101941.31;5068919;27;45719;-80
2022/06/12 04:33:58;;;;;;;;;1.67;1.67;;;;;22.80;100.00;101934.91;5064362;27;45813;-81
2022/06/12 04:36:27;;;;;;;;;7.33;3.33;;;;;23.37;100.00;101920.41;5049734;28;45533;-79
2022/06/12 04:39:06;;;;;;;;;5.00;3.67;;;;;23.81;100.00;101896.91;5067403;27;45450;-80
2022/06/12 04:41:37;;;;;;;;;3.33;2.33;;;;;24.62;100.00;101923.72;5059579;28;45462;-78
2022/06/12 04:44:15;;;;;;;;;2.00;2.00;;;;;25.11;100.00;101910.38;5050239;28;47875;-79
2022/06/12 04:46:48;;;;;;;;;5.33;3.67;;;;;25.86;100.00;101924.69;5072749;27;45700;-77
2022/06/12 04:49:19;;;;;;;;;4.00;2.00;;;;;26.34;98.25;101904.63;5066557;27;45625;-77
2022/06/12 04:51:47;;;;;;;;;2.67;2.67;;;;;27.07;94.53;101925.66;5034005;28;45991;-78
2022/06/12 04:54:12;;;;;;;;;4.50;2.25;;;;;27.79;89.55;101929.88;5074982;28;46099;-81
2022/06/12 04:56:40;;;;;;;;;2.00;2.00;;;;;28.35;85.94;101943.38;5074286;27;45422;-81
2022/06/12 04:59:07;;;;;;;;;2.00;2.00;;;;;28.72;83.52;101917.53;5078546;27;45452;-82
2022/06/12 05:01:34;;;;;;;;;5.00;2.00;;;;;29.43;79.97;101932.56;5086298;27;45400;-80
2022/06/12 05:04:01;;;;;;;;;1.75;0.25;;;;;29.94;77.38;101925.16;5074174;27;46058;-81
2022/06/12 05:06:28;;;;;;;;;2.25;1.75;;;;;30.43;75.27;101917.13;5051736;28;45532;-80
2022/06/12 05:08:54;;;;;;;;;2.75;1.25;;;;;31.05;71.36;101939.28;5075080;27;45507;-81
2022/06/12 05:11:22;;;;;;;;;1.00;1.00;;;;;31.39;69.44;101912.34;5073024;27;45791;-82
2022/06/12 05:13:47;;;;;;;;;5.00;2.00;;;;;31.92;66.64;101912.69;5067805;27;46137;-82
2022/06/12 05:16:25;;;;;;;;;3.25;3.00;;;;;32.50;64.86;101916.41;5072329;27;45615;-82
2022/06/12 05:18:50;;;;;;;;;3.25;1.25;;;;;33.04;62.89;101901.97;5050730;27;46058;-82
2022/06/12 05:21:16;;;;;;;;;4.25;1.25;;;;;33.68;59.10;101914.63;5072233;27;45801;-79
2022/06/12 05:23:41;;;;;;;;;2.00;1.25;;;;;34.10;55.94;101914.81;5047884;27;46596;-81
2022/06/12 05:26:09;;;;;;;;;2.00;2.00;;;;;34.51;54.00;101923.84;5069195;27;45929;-81
2022/06/12 05:28:36;;;;;;;;;5.75;3.00;;;;;34.77;51.38;101909.44;5064574;27;45732;-80
2022/06/12 05:31:03;;;;;;;;;2.00;1.00;;;;;35.06;50.14;101897.13;5065769;27;45983;-83
2022/06/12 05:33:29;;;;;;;;;1.25;1.00;;;;;35.52;48.48;101922.88;5064953;27;45444;-80
2022/06/12 05:35:54;;;;;;;;;3.00;1.75;;;;;35.97;46.66;101910.63;5052209;27;45765;-80
2022/06/12 05:38:20;;;;;;;;;2.75;1.25;;;;;36.27;44.85;101907.56;5070150;27;45779;-79
2022/06/12 05:40:45;;;;;;;;;1.50;1.50;;;;;36.75;43.15;101903.00;5068149;27;45564;-80
2022/06/12 05:43:25;;;;;;;;;2.50;1.00;;;;;37.22;42.58;101903.56;5051334;28;45942;-80
2022/06/12 05:45:50;;;;;;;;;2.00;1.00;;;;;37.74;39.51;101914.06;5067298;27;45538;-81
2022/06/12 05:48:21;;;;;;;;;1.25;1.00;;;;;38.27;37.85;101910.09;5068039;27;45778;-79
2022/06/12 05:50:58;;;;;;;;;2.00;2.00;;;;;38.72;36.13;101919.34;5066817;28;45921;-79
2022/06/12 05:53:27;;;;;;;;;3.50;2.75;;;;;39.14;35.53;101919.47;5033832;28;47141;-78
2022/06/12 05:55:54;;;;;;;;;3.25;1.00;;;;;39.44;33.50;101921.69;5052217;28;45556;-79
2022/06/12 05:58:21;;;;;;;;;1.50;1.50;;;;;39.62;32.69;101906.88;5048074;28;46068;-78
2022/06/12 06:00:49;;;;;;;;;2.00;2.00;;;;;39.92;33.01;101926.28;5061443;28;45896;-79
2022/06/12 06:03:15;;;;;;;;;1.00;1.00;;;;;40.19;33.80;101928.00;5047044;28;46108;-76
2022/06/12 06:05:43;;;;;;;;;2.00;1.00;;;;;40.47;30.97;101923.97;5047633;28;45869;-75
2022/06/12 06:08:12;;;;;;;;;1.00;1.00;;;;;40.44;29.28;101930.50;5049942;28;45948;-78
2022/06/12 06:10:43;;;;;;;;;3.75;1.00;;;;;39.74;29.30;101935.41;5048827;28;45557;-80
2022/06/12 06:13:21;;;;;;;;;1.00;1.00;;;;;38.87;32.56;101935.66;5056779;28;45781;-81
2022/06/12 06:15:54;;;;;;;;;1.00;1.00;;;;;39.30;30.71;101930.00;5053797;28;45720;-79
2022/06/12 06:18:27;;;;;;;;;1.00;1.00;;;;;39.92;29.76;101917.69;5031891;28;45695;-76
2022/06/12 06:21:05;;;;;;;;;1.75;1.75;;;;;40.52;28.35;101929.38;5027595;28;45434;-77
2022/06/12 06:23:34;;;;;;;;;1.00;1.00;;;;;41.01;26.92;101921.84;5045010;28;45611;-80
2022/06/12 06:26:09;;;;;;;;;2.00;2.00;;;;;40.63;27.49;101935.25;5048871;28;45917;-78
2022/06/12 06:28:36;;;;;;;;;2.00;1.00;;;;;40.19;27.20;101905.00;5049109;28;46070;-79
2022/06/12 06:31:20;;;;;;;;;1.00;1.00;;;;;40.35;27.77;101941.41;5051519;28;45532;-78
2022/06/12 06:33:54;;;;;;;;;1.00;1.00;;;;;41.02;25.97;101925.56;5050725;28;45555;-78
2022/06/12 06:36:23;;;;;;;;;2.25;1.00;;;;;41.73;24.96;101939.97;5046097;28;45455;-78
2022/06/12 06:38:52;;;;;;;;;2.00;1.00;;;;;42.34;24.47;101946.31;5049378;28;45679;-78
2022/06/12 06:41:19;;;;;;;;;2.50;2.50;;;;;42.95;24.63;101942.13;5049140;28;45808;-79
2022/06/12 06:46:29;;;;;;;;;2.00;1.00;;;;;44.16;22.35;101948.66;5052470;28;45535;-82
2022/06/12 06:48:55;;;;;;;;;0.75;0.75;;;;;44.70;20.85;101942.84;5052613;28;45843;-86
2022/06/12 06:51:24;;;;;;;;;3.75;1.00;;;;;44.95;20.71;101940.66;5041465;28;45559;-85
2022/06/12 06:53:52;;;;;;;;;3.00;2.00;;;;;45.01;21.21;101943.97;5014841;28;48106;-82
2022/06/12 06:56:19;;;;;;;;;1.00;1.00;;;;;44.95;20.85;101942.75;5024949;28;45934;-84
2022/06/12 06:58:49;;;;;;;;;3.25;2.00;;;;;45.05;20.87;101933.22;5029961;28;45368;-84
2022/06/12 07:01:15;;;;;;;;;2.00;0.67;;;;;45.35;21.34;101943.41;5030339;28;45909;-84
2022/06/12 07:03:43;;;;;;;;;4.25;2.00;;;;;45.54;20.30;101944.13;5015374;28;45766;-84
2022/06/12 07:06:15;;;;;;;;;3.33;1.00;;;;;45.95;20.13;101952.97;5028438;28;45927;-82
2022/06/12 07:08:44;;;;;;;;;1.50;0.25;;;;;46.24;20.13;101949.00;5028315;28;45557;-81
2022/06/12 07:11:10;;;;;;;;;1.33;1.00;;;;;46.44;19.88;101941.34;5029606;28;45753;-79
2022/06/12 07:13:36;;;;;;;;;2.00;2.00;;;;;46.48;19.33;101947.91;5031095;28;46637;-81
2022/06/12 07:16:03;;;;;;;;;4.00;1.50;;;;;46.40;19.21;101934.75;5031487;28;45937;-82
2022/06/12 07:18:29;;;;;;;;;2.00;2.00;;;;;46.34;19.76;101942.28;5029292;28;45993;-82
2022/06/12 07:21:01;;;;;;;;;1.50;1.00;;;;;46.58;20.18;101945.34;5037693;28;45855;-83
2022/06/12 07:23:28;;;;;;;;;1.75;0.00;;;;;46.97;19.76;101947.00;5012340;28;45829;-83
2022/06/12 07:26:07;;;;;;;;;1.00;1.00;;;;;47.27;19.78;101949.06;5014199;28;45471;-82
2022/06/12 07:28:45;;;;;;;;;1.33;1.00;;;;;47.49;19.36;101942.97;5029707;28;45989;-83
2022/06/12 07:31:35;;;;;;;;;3.00;1.75;;;;;47.88;19.08;101951.09;5010782;28;45810;-83
2022/06/12 07:34:05;;;;;;;;;2.33;0.67;;;;;48.34;18.33;101939.88;5028857;28;45573;-78
2022/06/12 07:36:31;;;;;;;;;1.00;1.00;;;;;48.78;17.84;101949.44;5029904;28;45422;-80
2022/06/12 07:38:59;;;;;;;;;1.33;1.33;;;;;49.10;17.75;101945.03;5033612;28;45445;-82
2022/06/12 07:41:30;;;;;;;;;2.00;1.00;;;;;49.69;17.23;101950.38;5035703;28;45622;-81
2022/06/12 07:43:56;;;;;;;;;1.00;1.00;;;;;50.13;16.63;101945.13;5014627;28;47657;-80
2022/06/12 07:46:22;;;;;;;;;1.00;1.00;;;;;50.45;15.96;101949.25;5011374;28;45829;-79
2022/06/12 07:48:48;;;;;;;;;0.67;0.67;;;;;50.49;16.65;101944.16;5013666;28;45809;-81
2022/06/12 07:51:19;;;;;;;;;3.00;0.67;;;;;50.61;16.37;101943.41;5032122;28;45973;-79
2022/06/12 07:53:46;;;;;;;;;1.67;1.67;;;;;50.72;15.70;101942.25;5037836;28;46017;-84
2022/06/12 07:56:13;;;;;;;;;0.33;0.33;;;;;50.95;16.02;101930.31;5040421;28;45683;-85
2022/06/12 07:58:40;;;;;;;;;0.00;0.00;;;;;51.16;15.64;101922.13;5018036;28;46039;-83
2022/06/12 08:01:09;;;;;;;;;5.33;3.67;;;;;51.51;15.75;101936.94;5032184;28;45602;-83
2022/06/12 08:03:34;;;;;;;;;1.33;1.33;;;;;51.73;15.11;101954.59;5032179;28;46297;-81
2022/06/12 08:06:01;;;;;;;;;2.33;2.33;;;;;51.90;15.13;101928.94;5029175;28;45895;-83
2022/06/12 08:08:27;;;;;;;;;2.00;1.00;;;;;52.25;14.77;101938.56;5010995;28;45419;-84
2022/06/12 08:10:53;;;;;;;;;1.00;1.00;;;;;52.72;14.34;101944.84;5036798;28;45569;-84
2022/06/12 08:13:24;;;;;;;;;2.00;0.67;;;;;52.88;13.50;101938.78;5009529;28;46021;-83
2022/06/12 08:15:51;;;;;;;;;4.00;1.00;;;;;53.03;14.11;101941.16;5015596;28;45700;-84
2022/06/12 08:18:19;;;;;;;;;2.00;1.00;;;;;53.12;13.71;101947.88;5032377;28;45522;-83
2022/06/12 08:20:50;;;;;;;;;1.33;1.00;;;;;53.22;13.56;101948.72;5030433;28;45488;-83
2022/06/12 08:23:28;;;;;;;;;0.33;0.33;;;;;53.11;13.65;101928.66;5046441;28;45786;-85
2022/06/12 08:26:15;;;;;;;;;1.33;1.33;;;;;53.37;13.37;101936.44;5013550;28;45519;-87
2022/06/12 08:28:51;;;;;;;;;1.00;1.00;;;;;53.52;12.92;101939.59;5008003;28;45723;-86
2022/06/12 08:31:21;;;;;;;;;4.00;2.33;;;;;53.79;13.22;101912.47;5037081;28;45375;-84
2022/06/12 08:33:53;;;;;;;;;2.33;1.00;;;;;53.93;13.50;101908.91;5042208;28;46583;-85
2022/06/12 08:36:22;;;;;;;;;1.33;1.00;;;;;53.98;12.86;101922.94;5029570;28;44794;-83
2022/06/12 08:38:48;;;;;;;;;1.00;1.00;;;;;53.50;12.85;101921.66;5040726;28;45392;-85
2022/06/12 08:41:36;;;;;;;;;1.33;1.33;;;;;53.03;13.71;101920.63;5043659;28;45581;-90
2022/06/12 08:44:17;;;;;;;;;0.00;0.00;;;;;53.27;13.55;101917.97;5052229;28;45250;-87
2022/06/12 08:46:49;;;;;;;;;0.00;0.00;;;;;53.63;12.79;101899.72;5054461;28;45920;-86
2022/06/12 08:50:09;;;;;;;;;2.00;0.67;;;;;54.33;13.25;101910.09;5041955;28;45482;-86
2022/06/12 08:52:53;;;;;;;;;0.00;0.00;;;;;54.71;12.62;101902.06;5002712;28;47141;-84
2022/06/12 08:55:41;;;;;;;;;0.00;0.00;;;;;54.70;12.24;101909.28;5006136;28;47683;-86
2022/06/12 08:58:37;;;;;;;;;1.00;1.00;;;;;54.42;12.13;101885.78;5025871;28;45408;-79
2022/06/12 09:01:03;;;;;;;;;0.00;0.00;;;;;54.48;11.69;101893.44;5044625;28;45672;-78
2022/06/12 09:03:49;;;;;;;;;2.67;2.67;;;;;54.75;12.45;101899.78;5035542;28;45880;-78
2022/06/12 09:06:26;;;;;;;;;2.00;1.33;;;;;55.08;12.74;101899.84;5030775;28;45675;-79
2022/06/12 09:09:37;;;;;;;;;3.00;1.00;;;;;55.12;11.79;101885.78;5017528;28;45816;-84
2022/06/12 09:12:47;;;;;;;;;0.00;0.00;;;;;54.61;11.91;101904.19;5034434;28;45719;-80
2022/06/12 09:15:32;;;;;;;;;1.00;1.00;;;;;54.62;12.27;101902.88;5034095;28;46564;-81
2022/06/12 09:18:04;;;;;;;;;3.00;1.67;;;;;54.50;11.84;101907.63;5036022;28;45775;-83
2022/06/12 09:20:56;;;;;;;;;2.00;2.00;;;;;54.60;12.53;101891.63;5038497;28;45796;-80
2022/06/12 09:23:55;;;;;;;;;1.00;1.00;;;;;54.80;11.89;101890.28;5039217;28;45716;-82
2022/06/12 09:26:34;;;;;;;;;0.33;0.33;;;;;55.47;11.89;101902.94;5032666;28;45446;-80
2022/06/12 09:29:24;;;;;;;;;1.00;1.00;;;;;55.58;11.78;101889.81;5034670;28;46068;-81
2022/06/12 09:31:58;;;;;;;;;0.00;0.00;;;;;56.03;11.35;101890.84;5012764;28;45682;-79
2022/06/12 09:34:30;;;;;;;;;1.00;1.00;;;;;56.60;11.36;101892.78;5034391;28;45767;-81
2022/06/12 09:40:05;;;;;;;;;1.00;1.00;;;;;56.48;11.22;101885.00;5032392;28;45499;-80
2022/06/12 09:42:57;;;;;;;;;1.00;1.00;;;;;56.43;11.89;101889.47;5032466;28;45555;-81
2022/06/12 09:45:41;;;;;;;;;1.00;1.00;;;;;56.41;11.56;101886.25;5032707;28;45569;-82
2022/06/12 09:48:24;;;;;;;;;1.00;1.00;;;;;56.16;11.52;101870.75;5038964;28;45501;-79
2022/06/12 09:51:12;;;;;;;;;1.33;1.00;;;;;56.28;11.57;101897.50;5039760;28;45773;-79
2022/06/12 09:54:25;;;;;;;;;13.67;13.67;;;;;56.36;11.30;101890.72;5030241;28;45431;-77
2022/06/12 09:57:07;;;;;;;;;9.33;8.33;;;;;56.85;10.96;101894.31;5030393;28;45823;-79
2022/06/12 09:59:42;;;;;;;;;3.00;3.00;;;;;57.02;11.42;101887.91;5010376;28;45772;-81
2022/06/12 10:02:27;;;;;;;;;2.00;2.00;;;;;57.15;10.70;101882.47;5033245;28;46464;-78
2022/06/12 10:05:22;;;;;;;;;2.33;2.33;;;;;56.21;11.83;101873.00;5010110;28;45910;-80
2022/06/12 10:08:42;;;;;;;;;1.00;1.00;;;;;55.03;12.01;101888.78;5033111;28;45881;-81
2022/06/12 10:11:41;;;;;;;;;3.67;1.00;;;;;54.61;12.06;101877.75;4930986;28;46040;-81
2022/06/12 10:14:40;;;;;;;;;4.00;2.00;;;;;54.26;12.27;101895.72;4925739;28;45879;-84
2022/06/12 10:17:33;;;;;;;;;6.00;4.00;;;;;54.69;12.78;101893.75;5027309;28;45392;-81
2022/06/12 10:20:08;;;;;;;;;1.00;1.00;;;;;54.85;11.20;101874.94;5031413;28;46093;-81
2022/06/12 10:22:43;;;;;;;;;2.00;0.33;;;;;54.58;11.40;101869.94;5033823;28;45399;-81
2022/06/12 10:25:18;;;;;;;;;2.67;0.67;;;;;54.39;12.19;101889.72;5017914;28;45871;-82
2022/06/12 10:28:00;;;;;;;;;2.00;1.00;;;;;54.26;12.62;101875.16;5032903;28;45499;-82
2022/06/12 10:30:42;;;;;;;;;3.00;2.00;;;;;53.21;12.67;101882.63;5032254;28;45418;-80
2022/06/12 10:34:16;;;;;;;;;3.33;1.67;;;;;52.61;12.64;101877.84;5012278;28;45528;-81
2022/06/12 10:37:07;;;;;;;;;2.67;1.67;;;;;52.58;13.41;101870.84;5029233;28;46011;-82
2022/06/12 10:39:34;;;;;;;;;1.00;1.00;;;;;52.55;12.92;101857.16;5026577;28;45947;-81
2022/06/12 10:42:08;;;;;;;;;3.00;3.00;;;;;52.45;13.52;101863.41;5011499;28;45913;-78
2022/06/12 10:44:57;;;;;;;;;2.33;2.33;;;;;52.53;13.70;101850.94;5030153;28;45886;-80
2022/06/12 10:47:30;;;;;;;;;2.33;2.00;;;;;52.42;12.34;101850.56;5031541;28;46339;-78
2022/06/12 10:50:20;;;;;;;;;1.00;1.00;;;;;52.42;12.57;101848.44;5027777;28;46986;-80
2022/06/12 10:53:13;;;;;;;;;1.00;1.00;;;;;52.37;12.42;101828.56;5029723;28;45905;-79
2022/06/12 10:55:42;;;;;;;;;2.00;2.00;;;;;52.21;12.00;101844.19;5027857;28;45563;-80
2022/06/12 10:58:29;;;;;;;;;2.00;1.00;;;;;52.07;12.43;101844.72;5010897;28;47627;-81
2022/06/12 11:00:59;;;;;;;;;4.67;3.00;;;;;51.83;12.13;101842.22;5025465;28;45871;-78
2022/06/12 11:03:57;;;;;;;;;7.33;5.33;;;;;51.43;12.69;101836.09;5014268;28;45445;-78
2022/06/12 11:06:36;;;;;;;;;1.00;1.00;;;;;51.01;11.56;101819.50;4916588;28;46019;-79
2022/06/12 11:09:36;;;;;;;;;0.00;0.00;;;;;50.65;11.88;101830.22;5013793;28;46831;-81
2022/06/12 11:12:18;;;;;;;;;3.67;3.67;;;;;50.14;13.63;101833.75;5031045;28;45455;-81
2022/06/12 11:15:28;;;;;;;;;2.00;1.00;;;;;49.27;12.93;101831.44;5012263;28;46021;-81
2022/06/12 11:18:14;;;;;;;;;24.67;20.00;;;;;48.58;13.97;101818.44;4967901;28;46014;-82
2022/06/12 11:20:55;;;;;;;;;6.00;6.00;;;;;47.49;14.28;101818.81;5017862;28;46584;-87
2022/06/12 11:24:25;;;;;;;;;3.00;3.00;;;;;46.19;16.05;101808.19;5021087;28;45430;-85
2022/06/12 11:27:36;;;;;;;;;0.67;0.33;;;;;44.80;16.09;101803.03;4969953;28;44952;-85
2022/06/12 11:30:33;;;;;;;;;1.33;1.00;;;;;43.35;16.66;101805.34;4949990;28;46069;-81
2022/06/12 11:34:39;;;;;;;;;1.00;1.00;;;;;41.90;16.71;101799.34;4957787;28;47588;-80
2022/06/12 11:37:17;;;;;;;;;1.75;0.25;;;;;40.41;18.22;101799.00;5026625;28;45805;-84
2022/06/12 11:40:04;;;;;;;;;0.75;0.75;;;;;39.18;18.69;101794.13;5021638;28;45461;-83
2022/06/12 11:43:18;;;;;;;;;2.00;1.00;;;;;37.84;19.51;101795.25;5040377;28;45209;-83
2022/06/12 11:46:17;;;;;;;;;2.33;2.33;;;;;36.77;21.67;101787.44;4971939;28;46012;-85
2022/06/12 11:48:54;;;;;;;;;3.00;2.50;;;;;35.57;22.65;101780.00;5000873;28;45852;-84
2022/06/12 11:51:40;;;;;;;;;2.67;2.00;;;;;34.60;24.94;101765.91;5047346;28;46053;-85
2022/06/12 11:54:47;;;;;;;;;0.00;0.00;;;;;33.94;26.61;101781.63;5020813;28;45411;-83
2022/06/12 11:57:17;;;;;;;;;2.00;1.00;;;;;33.22;27.70;101767.19;5036635;28;48614;-84
2022/06/12 11:59:57;;;;;;;;;1.25;1.25;;;;;32.62;30.07;101771.78;5018656;28;45499;-84
2022/06/12 12:02:52;;;;;;;;;2.25;2.25;;;;;31.96;30.64;101777.50;5028995;28;45347;-82
2022/06/12 12:05:48;;;;;;;;;1.00;1.00;;;;;31.19;32.64;101748.50;5041171;28;46151;-83
2022/06/12 12:08:23;;;;;;;;;2.67;1.00;;;;;30.83;36.55;101769.25;5046994;28;45855;-81
2022/06/12 12:11:00;;;;;;;;;2.00;2.00;;;;;30.32;37.19;101769.31;5032516;28;45943;-84
2022/06/12 12:13:48;;;;;;;;;1.33;1.00;;;;;29.79;39.53;101767.91;5026116;28;45339;-82
2022/06/12 12:16:26;;;;;;;;;2.67;1.33;;;;;29.33;42.91;101769.69;5025304;28;45811;-84
2022/06/12 12:18:57;;;;;;;;;3.00;1.67;;;;;28.91;44.17;101763.06;5044117;28;46955;-83
2022/06/12 12:21:42;;;;;;;;;2.33;2.00;;;;;28.44;45.20;101748.00;5023843;28;45777;-83
2022/06/12 12:24:16;;;;;;;;;1.00;1.00;;;;;28.21;50.38;101753.41;5030562;28;45510;-85
2022/06/12 12:26:43;;;;;;;;;4.00;1.00;;;;;27.93;50.46;101747.56;5038918;28;45355;-84
2022/06/12 12:29:16;;;;;;;;;1.00;1.00;;;;;27.73;51.38;101745.03;5020237;28;47251;-78
2022/06/12 12:32:31;;;;;;;;;1.00;1.00;;;;;27.54;52.07;101750.59;5038914;28;45757;-79
2022/06/12 12:34:58;;;;;;;;;2.67;2.67;;;;;27.20;58.35;101729.81;5043278;28;45494;-82
2022/06/12 12:43:14;;;;;;;;;1.33;1.00;;;;;26.79;58.51;101716.13;5030466;28;45867;-81
2022/06/12 12:45:39;;;;;;;;;1.00;1.00;;;;;26.80;57.19;101726.28;5035041;28;45907;-81
2022/06/12 12:48:12;;;;;;;;;2.00;0.67;;;;;26.77;60.90;101735.31;5034596;28;45318;-81